createdAt,value
2018-06-15T00:00:56.725Z,39.17
2018-06-15T00:03:38.868Z,38.23
2018-06-15T00:06:20.455Z,40.13
2018-06-15T00:08:50.958Z,42.27
2018-06-15T00:11:26.137Z,37.40
2018-06-15T00:13:54.821Z,40.73
2018-06-15T00:16:23.486Z,46.53
2018-06-15T00:19:02.029Z,40.43
2018-06-15T00:21:54.709Z,37.40
2018-06-15T00:27:15.989Z,40.30
2018-06-15T00:30:00.667Z,39.37
2018-06-15T00:32:42.239Z,37.73
2018-06-15T00:38:07.241Z,40.53
2018-06-15T00:40:39.327Z,36.10
2018-06-15T00:46:01.920Z,37.87
2018-06-15T00:51:23.303Z,36.53
2018-06-15T00:56:59.942Z,36.30
2018-06-15T00:59:29.581Z,36.07
2018-06-15T01:02:09.944Z,34.77
2018-06-15T01:04:39.608Z,36.40
2018-06-15T01:07:11.279Z,36.00
2018-06-15T01:09:40.941Z,34.70
2018-06-15T01:12:29.869Z,32.37
2018-06-15T01:18:09.019Z,38.50
2018-06-15T01:20:47.236Z,31.10
2018-06-15T01:23:23.004Z,31.10
2018-06-15T01:26:06.320Z,31.77
2018-06-15T01:28:36.927Z,30.07
2018-06-15T01:31:21.897Z,33.17
2018-06-15T01:36:45.104Z,32.27
2018-06-15T01:39:15.627Z,31.43
2018-06-15T01:41:51.073Z,33.80
2018-06-15T01:44:37.228Z,32.13
2018-06-15T01:47:06.950Z,31.30
2018-06-15T01:49:40.159Z,33.87
2018-06-15T01:52:16.244Z,33.53
2018-06-15T01:54:52.312Z,33.10
2018-06-15T01:57:44.348Z,29.03
2018-06-15T02:00:13.069Z,30.03
2018-06-15T02:03:06.267Z,31.03
2018-06-15T02:05:42.964Z,34.17
2018-06-15T02:11:16.883Z,31.47
2018-06-15T02:13:52.023Z,32.97
2018-06-15T02:16:22.552Z,31.37
2018-06-15T02:18:51.204Z,32.50
2018-06-15T02:21:31.649Z,31.90
2018-06-15T02:24:13.162Z,30.27
2018-06-15T02:26:41.645Z,31.87
2018-06-15T02:29:25.854Z,32.23
2018-06-15T02:32:01.180Z,31.03
2018-06-15T02:34:29.702Z,31.57
2018-06-15T02:37:01.264Z,28.60
2018-06-15T02:39:29.864Z,29.63
2018-06-15T02:41:58.243Z,27.63
2018-06-15T02:44:26.776Z,30.93
2018-06-15T02:49:48.037Z,28.70
2018-06-15T02:52:20.060Z,29.50
2018-06-15T02:55:02.335Z,27.20
2018-06-15T02:57:45.706Z,27.70
2018-06-15T03:00:14.408Z,34.37
2018-06-15T03:02:43.954Z,26.90
2018-06-15T03:05:12.340Z,28.40
2018-06-15T03:07:40.735Z,30.67
2018-06-15T03:10:13.134Z,28.20
2018-06-15T03:12:41.806Z,29.63
2018-06-15T03:15:10.487Z,26.47
2018-06-15T03:17:43.792Z,28.20
2018-06-15T03:20:30.881Z,28.70
2018-06-15T03:22:59.287Z,26.50
2018-06-15T03:25:29.856Z,26.70
2018-06-15T03:28:00.362Z,26.40
2018-06-15T03:33:26.289Z,29.07
2018-06-15T03:36:00.548Z,27.60
2018-06-15T03:38:33.501Z,27.63
2018-06-15T03:41:02.304Z,33.87
2018-06-15T03:43:30.873Z,33.33
2018-06-15T03:45:59.622Z,30.47
2018-06-15T03:48:28.998Z,34.03
2018-06-15T03:51:01.248Z,34.50
2018-06-15T03:53:34.817Z,32.47
2018-06-15T03:56:08.455Z,31.87
2018-06-15T03:58:38.090Z,33.60
2018-06-15T04:04:11.326Z,32.53
2018-06-15T04:06:41.896Z,33.17
2018-06-15T04:09:11.491Z,32.13
2018-06-15T04:11:41.089Z,36.73
2018-06-15T04:14:22.095Z,33.03
2018-06-15T04:17:03.397Z,30.17
2018-06-15T04:19:51.747Z,31.70
2018-06-15T04:22:29.655Z,31.90
2018-06-15T04:25:04.566Z,31.87
2018-06-15T04:27:33.086Z,32.37
2018-06-15T04:30:01.513Z,28.10
2018-06-15T04:32:29.982Z,28.07
2018-06-15T04:34:58.565Z,27.43
2018-06-15T04:37:26.993Z,28.63
2018-06-15T04:39:59.350Z,28.77
2018-06-15T04:42:35.092Z,25.40
2018-06-15T04:45:23.750Z,28.80
2018-06-15T04:48:06.203Z,30.37
2018-06-15T04:50:40.752Z,28.50
2018-06-15T04:53:28.209Z,30.93
2018-06-15T04:55:56.870Z,28.70
2018-06-15T04:58:39.674Z,27.97
2018-06-15T05:01:30.214Z,31.33
2018-06-15T05:06:53.409Z,26.03
2018-06-15T05:09:24.134Z,26.63
2018-06-15T05:11:54.714Z,23.33
2018-06-15T05:14:25.281Z,27.07
2018-06-15T05:16:54.878Z,24.37
2018-06-15T05:19:27.693Z,24.17
2018-06-15T05:21:58.068Z,29.90
2018-06-15T05:24:32.328Z,29.33
2018-06-15T05:27:02.907Z,28.07
2018-06-15T05:29:38.664Z,27.27
2018-06-15T05:32:09.137Z,23.37
2018-06-15T05:34:51.926Z,25.97
2018-06-15T05:37:26.576Z,28.93
2018-06-15T05:39:59.144Z,26.03
2018-06-15T05:42:40.757Z,28.63
2018-06-15T05:45:32.176Z,27.97
2018-06-15T05:48:04.268Z,24.70
2018-06-15T05:50:34.779Z,26.37
2018-06-15T05:53:05.618Z,21.43
2018-06-15T05:55:36.161Z,24.73
2018-06-15T05:58:23.572Z,22.23
2018-06-15T06:01:03.360Z,20.90
2018-06-15T06:03:44.879Z,22.93
2018-06-15T06:06:36.323Z,24.03
2018-06-15T06:09:18.816Z,19.13
2018-06-15T06:11:52.730Z,27.67
2018-06-15T06:14:26.648Z,21.77
2018-06-15T06:16:55.123Z,22.53
2018-06-15T06:19:37.217Z,25.20
2018-06-15T06:25:06.140Z,21.30
2018-06-15T06:27:39.589Z,25.17
2018-06-15T06:30:08.446Z,23.43
2018-06-15T06:32:37.560Z,25.23
2018-06-15T06:35:08.278Z,22.00
2018-06-15T06:37:42.687Z,22.87
2018-06-15T06:40:16.880Z,23.17
2018-06-15T06:42:53.561Z,17.40
2018-06-15T06:45:31.463Z,22.90
2018-06-15T06:48:13.006Z,23.53
2018-06-15T06:50:42.726Z,21.13
2018-06-15T06:53:15.272Z,20.50
2018-06-15T06:55:57.224Z,21.27
2018-06-15T06:58:45.519Z,23.80
2018-06-15T07:01:15.158Z,18.33
2018-06-15T07:03:57.594Z,25.77
2018-06-15T07:06:31.240Z,20.77
2018-06-15T07:09:07.930Z,20.50
2018-06-15T07:11:53.158Z,21.17
2018-06-15T07:17:25.430Z,20.73
2018-06-15T07:20:03.828Z,23.27
2018-06-15T07:22:35.564Z,22.00
2018-06-15T07:25:04.284Z,23.93
2018-06-15T07:27:32.952Z,22.67
2018-06-15T07:30:04.710Z,23.60
2018-06-15T07:32:39.519Z,23.93
2018-06-15T07:35:10.078Z,23.83
2018-06-15T07:37:51.970Z,26.97
2018-06-15T07:40:21.762Z,25.97
2018-06-15T07:42:54.236Z,24.13
2018-06-15T07:45:36.108Z,20.60
2018-06-15T07:48:08.223Z,29.13
2018-06-15T07:50:41.381Z,22.57
2018-06-15T07:53:32.612Z,22.47
2018-06-15T07:56:07.745Z,24.43
2018-06-15T07:58:38.283Z,24.10
2018-06-15T08:01:28.797Z,21.30
2018-06-15T08:04:03.959Z,20.37
2018-06-15T08:06:33.246Z,18.40
2018-06-15T08:09:03.212Z,19.73
2018-06-15T08:11:31.822Z,18.27
2018-06-15T08:14:01.426Z,22.10
2018-06-15T08:16:34.742Z,18.97
2018-06-15T08:19:03.857Z,16.03
2018-06-15T08:21:45.274Z,17.40
2018-06-15T08:24:14.933Z,17.87
2018-06-15T08:27:07.262Z,16.03
2018-06-15T08:29:45.756Z,16.50
2018-06-15T08:32:14.219Z,15.80
2018-06-15T08:34:42.832Z,14.43
2018-06-15T08:37:11.182Z,14.87
2018-06-15T08:39:40.797Z,14.67
2018-06-15T08:42:14.939Z,18.97
2018-06-15T08:47:59.715Z,14.63
2018-06-15T08:50:35.779Z,15.07
2018-06-15T08:56:02.981Z,15.27
2018-06-15T08:58:32.967Z,17.57
2018-06-15T09:03:55.871Z,14.67
2018-06-15T09:06:29.000Z,13.80
2018-06-15T09:08:59.579Z,19.30
2018-06-15T09:11:36.947Z,15.63
2018-06-15T09:14:05.135Z,13.57
2018-06-15T09:16:35.825Z,15.77
2018-06-15T09:19:18.889Z,15.07
2018-06-15T09:21:47.724Z,13.53
2018-06-15T09:24:28.837Z,15.50
2018-06-15T09:27:03.411Z,12.27
2018-06-15T09:29:38.227Z,14.80
2018-06-15T09:32:12.381Z,13.73
2018-06-15T09:34:42.972Z,16.20
2018-06-15T09:37:13.537Z,12.77
2018-06-15T09:39:47.707Z,11.73
2018-06-15T09:45:09.044Z,11.87
2018-06-15T09:47:37.405Z,11.73
2018-06-15T09:50:12.891Z,13.90
2018-06-15T09:52:41.583Z,15.07
2018-06-15T09:55:10.279Z,11.67
2018-06-15T09:57:39.924Z,12.97
2018-06-15T10:00:10.083Z,10.00
2018-06-15T10:02:42.255Z,10.37
2018-06-15T10:05:30.751Z,16.40
2018-06-15T10:08:18.561Z,11.83
2018-06-15T10:10:52.544Z,15.47
2018-06-15T10:13:25.461Z,12.93
2018-06-15T10:16:00.062Z,14.23
2018-06-15T10:18:28.860Z,10.33
2018-06-15T10:20:57.447Z,15.30
2018-06-15T10:23:27.064Z,12.73
2018-06-15T10:25:56.714Z,9.93
2018-06-15T10:28:31.182Z,10.23
2018-06-15T10:30:59.982Z,12.87
2018-06-15T10:33:29.604Z,11.53
2018-06-15T10:36:03.784Z,11.37
2018-06-15T10:38:36.467Z,13.77
2018-06-15T10:41:05.192Z,14.87
2018-06-15T10:43:35.050Z,13.43
2018-06-15T10:46:06.962Z,12.10
2018-06-15T10:48:36.719Z,10.83
2018-06-15T10:51:06.464Z,12.03
2018-06-15T10:53:35.074Z,11.57
2018-06-15T10:56:04.356Z,10.60
2018-06-15T10:58:36.042Z,11.73
2018-06-15T11:01:05.716Z,10.27
2018-06-15T11:03:46.841Z,15.00
2018-06-15T11:06:15.607Z,10.27
2018-06-15T11:08:44.338Z,14.70
2018-06-15T11:11:15.159Z,12.97
2018-06-15T11:13:43.798Z,12.17
2018-06-15T11:16:12.576Z,12.33
2018-06-15T11:18:41.286Z,9.50
2018-06-15T11:21:09.996Z,14.27
2018-06-15T11:23:39.569Z,13.03
2018-06-15T11:26:08.149Z,12.40
2018-06-15T11:28:42.362Z,13.07
2018-06-15T11:34:21.435Z,12.10
2018-06-15T11:36:54.618Z,14.87
2018-06-15T11:39:23.206Z,12.90
2018-06-15T11:41:51.946Z,10.70
2018-06-15T11:44:32.354Z,9.73
2018-06-15T11:47:01.033Z,12.80
2018-06-15T11:49:30.678Z,15.57
2018-06-15T11:52:03.259Z,11.93
2018-06-15T11:54:31.842Z,11.60
2018-06-15T11:57:00.535Z,15.40
2018-06-15T11:59:29.170Z,12.40
2018-06-15T12:02:02.777Z,17.73
2018-06-15T12:04:42.257Z,10.37
2018-06-15T12:07:11.039Z,12.40
2018-06-15T12:09:41.466Z,14.13
2018-06-15T12:12:26.100Z,16.23
2018-06-15T12:15:01.678Z,14.33
2018-06-15T12:17:46.519Z,10.60
2018-06-15T12:20:16.457Z,12.13
2018-06-15T12:22:46.992Z,13.03
2018-06-15T12:25:17.514Z,13.43
2018-06-15T12:27:47.110Z,11.17
2018-06-15T12:30:22.979Z,14.73
2018-06-15T12:33:10.305Z,11.10
2018-06-15T12:35:40.834Z,10.70
2018-06-15T12:38:23.508Z,9.13
2018-06-15T12:40:53.051Z,10.27
2018-06-15T12:43:23.500Z,12.77
2018-06-15T12:45:52.282Z,20.00
2018-06-15T12:48:21.869Z,10.43
2018-06-15T12:51:02.445Z,9.53
2018-06-15T12:53:43.075Z,8.20
2018-06-15T12:56:13.082Z,7.20
2018-06-15T12:58:53.739Z,11.13
2018-06-15T13:01:26.568Z,9.53
2018-06-15T13:04:08.259Z,9.47
2018-06-15T13:06:37.221Z,10.93
2018-06-15T13:09:07.456Z,10.17
2018-06-15T13:11:48.218Z,13.43
2018-06-15T13:14:16.878Z,13.17
2018-06-15T13:16:46.547Z,9.60
2018-06-15T13:19:17.045Z,8.97
2018-06-15T13:21:45.700Z,8.13
2018-06-15T13:24:16.472Z,9.77
2018-06-15T13:26:47.213Z,9.20
2018-06-15T13:29:16.834Z,8.07
2018-06-15T13:31:50.391Z,9.33
2018-06-15T13:34:31.980Z,8.93
2018-06-15T13:37:58.039Z,8.93
2018-06-15T13:40:50.022Z,10.80
2018-06-15T13:43:35.953Z,11.70
2018-06-15T13:46:04.971Z,9.67
2018-06-15T13:48:38.879Z,11.23
2018-06-15T13:51:13.033Z,9.27
2018-06-15T13:53:46.269Z,10.53
2018-06-15T13:56:20.201Z,9.43
2018-06-15T13:59:07.961Z,11.00
2018-06-15T14:01:37.975Z,9.37
2018-06-15T14:04:07.333Z,8.87
2018-06-15T14:06:46.913Z,9.27
2018-06-15T14:09:25.231Z,9.77
2018-06-15T14:11:55.733Z,8.40
2018-06-15T14:14:33.759Z,9.30
2018-06-15T14:17:14.759Z,10.33
2018-06-15T14:19:54.381Z,9.07
2018-06-15T14:22:33.776Z,10.37
2018-06-15T14:25:19.149Z,10.03
2018-06-15T14:27:48.879Z,8.13
2018-06-15T14:30:21.129Z,6.90
2018-06-15T14:33:06.929Z,11.07
2018-06-15T14:35:41.203Z,8.20
2018-06-15T14:38:18.656Z,6.67
2018-06-15T14:40:53.411Z,8.30
2018-06-15T14:43:24.311Z,10.97
2018-06-15T14:48:47.729Z,8.83
2018-06-15T14:51:23.959Z,10.63
2018-06-15T14:54:00.375Z,11.70
2018-06-15T14:56:33.786Z,14.90
2018-06-15T14:59:07.001Z,10.97
2018-06-15T15:01:42.638Z,13.63
2018-06-15T15:04:13.325Z,10.20
2018-06-15T15:06:45.623Z,11.03
2018-06-15T15:12:11.054Z,11.27
2018-06-15T15:14:43.517Z,9.17
2018-06-15T15:17:19.008Z,7.70
2018-06-15T15:19:53.569Z,7.27
2018-06-15T15:22:42.170Z,6.60
2018-06-15T15:25:12.783Z,8.47
2018-06-15T15:27:43.424Z,7.53
2018-06-15T15:33:07.677Z,6.80
2018-06-15T15:35:43.339Z,9.37
2018-06-15T15:38:13.111Z,11.67
2018-06-15T15:40:43.689Z,11.60
2018-06-15T15:43:30.985Z,7.50
2018-06-15T15:46:03.362Z,8.13
2018-06-15T15:48:33.943Z,10.07
2018-06-15T15:51:03.547Z,8.60
2018-06-15T15:53:37.902Z,8.63
2018-06-15T15:56:09.962Z,8.43
2018-06-15T15:58:41.864Z,9.27
2018-06-15T16:01:11.451Z,9.23
2018-06-15T16:03:43.878Z,9.40
2018-06-15T16:06:28.849Z,12.27
2018-06-15T16:08:58.708Z,9.57
2018-06-15T16:11:27.346Z,12.87
2018-06-15T16:13:56.985Z,10.20
2018-06-15T16:16:31.418Z,10.30
2018-06-15T16:19:04.578Z,7.20
2018-06-15T16:21:33.220Z,8.00
2018-06-15T16:24:03.806Z,13.53
2018-06-15T16:26:32.428Z,11.80
2018-06-15T16:29:07.092Z,8.70
2018-06-15T16:31:43.048Z,8.17
2018-06-15T16:34:12.034Z,9.80
2018-06-15T16:36:47.391Z,8.90
2018-06-15T16:39:26.985Z,14.07
2018-06-15T16:41:58.097Z,10.63
2018-06-15T16:44:37.855Z,11.07
2018-06-15T16:47:11.855Z,15.27
2018-06-15T16:49:42.887Z,9.30
2018-06-15T16:52:17.788Z,9.00
2018-06-15T16:54:47.407Z,7.57
2018-06-15T16:57:22.883Z,16.00
2018-06-15T16:59:52.819Z,13.23
2018-06-15T17:02:21.658Z,10.00
2018-06-15T17:04:52.055Z,11.77
2018-06-15T17:07:25.135Z,10.60
2018-06-15T17:09:53.883Z,9.17
2018-06-15T17:12:27.746Z,8.37
2018-06-15T17:15:06.321Z,9.17
2018-06-15T17:17:35.717Z,9.87
2018-06-15T17:20:04.261Z,7.30
2018-06-15T17:22:38.651Z,11.93
2018-06-15T17:25:13.025Z,10.47
2018-06-15T17:27:42.648Z,10.70
2018-06-15T17:30:12.527Z,12.03
2018-06-15T17:32:42.367Z,12.23
2018-06-15T17:35:14.385Z,10.30
2018-06-15T17:37:48.705Z,8.50
2018-06-15T17:40:20.843Z,10.63
2018-06-15T17:42:57.522Z,13.67
2018-06-15T17:45:26.933Z,10.60
2018-06-15T17:47:57.241Z,10.93
2018-06-15T17:50:27.702Z,8.37
2018-06-15T17:52:56.364Z,10.17
2018-06-15T17:55:28.112Z,10.77
2018-06-15T17:57:57.493Z,10.30
2018-06-15T18:00:42.511Z,12.80
2018-06-15T18:03:14.785Z,10.37
2018-06-15T18:05:47.421Z,10.07
2018-06-15T18:08:17.951Z,13.03
2018-06-15T18:10:50.048Z,9.80
2018-06-15T18:16:12.561Z,7.73
2018-06-15T18:18:43.384Z,10.03
2018-06-15T18:21:13.009Z,12.10
2018-06-15T18:23:51.428Z,11.73
2018-06-15T18:26:22.353Z,11.93
2018-06-15T18:29:06.909Z,9.97
2018-06-15T18:31:35.831Z,11.13
2018-06-15T18:34:04.524Z,12.47
2018-06-15T18:36:36.511Z,12.13
2018-06-15T18:39:19.539Z,10.87
2018-06-15T18:41:51.208Z,14.10
2018-06-15T18:44:27.249Z,12.03
2018-06-15T18:46:56.564Z,12.03
2018-06-15T18:49:26.434Z,9.67
2018-06-15T18:52:15.038Z,13.77
2018-06-15T19:04:00.981Z,11.10
2018-06-15T19:06:33.453Z,14.20
2018-06-15T19:15:10.848Z,12.27
2018-06-15T19:20:45.939Z,9.13
2018-06-15T19:26:13.383Z,13.53
2018-06-15T19:28:50.733Z,14.03
2018-06-15T19:54:11.022Z,14.90
2018-06-15T19:56:40.852Z,18.80
2018-06-15T20:25:27.875Z,17.73
2018-06-15T20:28:13.197Z,19.00
2018-06-15T20:30:49.175Z,15.87
2018-06-15T20:33:23.644Z,20.43
2018-06-15T20:35:54.331Z,14.73
2018-06-15T20:41:17.409Z,19.17
2018-06-15T20:43:50.803Z,18.93
2018-06-15T20:46:23.703Z,19.37
2018-06-15T20:48:52.958Z,17.30
2018-06-15T20:51:24.954Z,19.37
2018-06-15T20:53:54.384Z,25.83
2018-06-15T20:56:25.545Z,27.00
2018-06-15T20:59:07.299Z,26.97
2018-06-15T21:01:42.296Z,21.07
2018-06-15T21:04:12.833Z,21.93
2018-06-15T21:06:52.714Z,25.23
2018-06-15T21:09:22.092Z,24.70
2018-06-15T21:12:04.947Z,21.73
2018-06-15T21:14:34.763Z,30.70
2018-06-15T21:17:04.521Z,24.70
2018-06-15T21:19:38.197Z,26.70
2018-06-15T21:22:06.776Z,22.10
2018-06-15T21:24:36.470Z,28.37
2018-06-15T21:27:14.802Z,27.50
2018-06-15T21:29:49.970Z,25.73
2018-06-15T21:32:18.441Z,25.53
2018-06-15T21:34:47.066Z,26.63
2018-06-15T21:37:24.314Z,30.70
2018-06-15T21:40:03.570Z,28.40
2018-06-15T21:42:32.236Z,30.07
2018-06-15T21:45:00.873Z,28.87
2018-06-15T21:47:35.066Z,29.97
2018-06-15T21:50:05.734Z,27.07
2018-06-15T21:52:39.845Z,33.00
2018-06-15T21:55:13.523Z,29.53
2018-06-15T21:57:53.829Z,36.33
2018-06-15T22:00:27.974Z,32.53
2018-06-15T22:03:16.389Z,34.57
2018-06-15T22:05:49.362Z,28.77
2018-06-15T22:08:18.035Z,30.57
2018-06-15T22:10:46.744Z,28.13
2018-06-15T22:13:23.371Z,28.63
2018-06-15T22:15:53.004Z,26.97
2018-06-15T22:18:21.664Z,29.87
2018-06-15T22:20:58.158Z,27.27
2018-06-15T22:23:36.319Z,31.97
2018-06-15T22:26:08.043Z,28.33
2018-06-15T22:28:42.594Z,32.53
2018-06-15T22:31:16.458Z,34.20
2018-06-15T22:33:44.808Z,32.60
2018-06-15T22:36:13.198Z,33.67
2018-06-15T22:38:47.736Z,34.80
2018-06-15T22:41:26.559Z,29.67
2018-06-15T22:44:06.341Z,30.23
2018-06-15T22:46:40.510Z,32.90
2018-06-15T22:49:10.983Z,32.60
2018-06-15T22:51:41.292Z,34.13
2018-06-15T22:54:22.561Z,35.43
2018-06-15T22:56:56.900Z,33.17
2018-06-15T22:59:25.518Z,31.17
2018-06-15T23:01:55.994Z,36.13
2018-06-15T23:04:25.614Z,40.23
2018-06-15T23:06:54.012Z,37.27
2018-06-15T23:09:26.084Z,38.90
2018-06-15T23:11:54.796Z,36.10
2018-06-15T23:14:33.987Z,39.00
2018-06-15T23:17:03.488Z,36.37
2018-06-15T23:19:31.857Z,38.60
2018-06-15T23:22:00.267Z,35.53
2018-06-15T23:24:28.963Z,37.67
2018-06-15T23:29:53.885Z,39.10
2018-06-15T23:32:24.578Z,33.37
2018-06-15T23:34:57.218Z,34.97
2018-06-15T23:37:27.814Z,39.30
2018-06-15T23:39:56.380Z,40.27
2018-06-15T23:42:24.752Z,38.33
2018-06-15T23:44:55.314Z,42.83
2018-06-15T23:47:31.716Z,41.67
2018-06-15T23:50:02.239Z,36.33
2018-06-15T23:52:31.583Z,35.27
2018-06-15T23:55:13.680Z,36.90
2018-06-15T23:57:45.794Z,36.73
